This is the latest recevied weather packets stored in our database for station/object KE4LOJ. If no packets are shown the sender has not sent any weather packets the latest 10 day(s).
| Time | Temp. | Humidity | Pressure | Rain* | Wind** | Luminosity | Snow |
|---|---|---|---|---|---|---|---|
| 1778108674 | 30° C | 52% | 1015.3 hPa | 0 mm | - | 41 W/m² | - |
| 1778108371 | 30° C | 51% | 1015.4 hPa | 0 mm | - | 45 W/m² | - |
| 1778108068 | 30° C | 51% | 1015.2 hPa | 0 mm | - | 46 W/m² | - |
| 1778107765 | 30.56° C | 51% | 1015.5 hPa | 0 mm | - | 74 W/m² | - |
| 1778107463 | 30.56° C | 50% | 1015.2 hPa | 0 mm | - | 68 W/m² | - |
| 1778107159 | 30.56° C | 50% | 1015.5 hPa | 0 mm | - | 67 W/m² | - |
| 1778106854 | 31.11° C | 49% | 1015.3 hPa | 0 mm | - | 66 W/m² | - |
| 1778106552 | 31.67° C | 48% | 1015.2 hPa | 0 mm | - | 143 W/m² | - |
| 1778106248 | 31.67° C | 47% | 1015.4 hPa | 0 mm | - | 225 W/m² | - |
| 1778105945 | 32.78° C | 45% | 1015.4 hPa | 0 mm | - | 209 W/m² | - |
| 1778105642 | 33.89° C | 39% | 1015.5 hPa | 0 mm | - | 185 W/m² | - |
| 1778105340 | 34.44° C | 36% | 1015.3 hPa | 0 mm | - | 267 W/m² | - |
| 1778105035 | 33.89° C | 36% | 1015.4 hPa | 0 mm | - | 296 W/m² | - |
| 1778104732 | 33.89° C | 36% | 1015.5 hPa | 0 mm | - | 302 W/m² | - |
| 1778104428 | 33.89° C | 36% | 1015.5 hPa | 0 mm | - | 287 W/m² | - |
| 1778104124 | 33.89° C | 36% | 1015.4 hPa | 0 mm | - | 291 W/m² | - |
| 1778103821 | 35° C | 35% | 1015.4 hPa | 0 mm | - | 227 W/m² | - |
| 1778103519 | 34.44° C | 35% | 1015.6 hPa | 0 mm | - | 391 W/m² | - |
| 1778103216 | 33.89° C | 37% | 1015.4 hPa | 0 mm | - | 310 W/m² | - |
| 1778102913 | 33.89° C | 37% | 1015.5 hPa | 0 mm | - | 384 W/m² | - |
| 1778102609 | 33.89° C | 37% | 1015.4 hPa | 0 mm | - | 377 W/m² | - |
| 1778102304 | 33.89° C | 36% | 1015.2 hPa | 0 mm | - | 363 W/m² | - |
| 1778102001 | 33.89° C | 37% | 1015.3 hPa | 0 mm | - | 448 W/m² | - |
| 1778101698 | 33.89° C | 37% | 1015.4 hPa | 0 mm | - | 430 W/m² | - |
| 1778101395 | 33.89° C | 37% | 1015.4 hPa | 0 mm | - | 385 W/m² | - |
* Rain latest hour (hover to see other rain measurements)
** Current wind speed in m/s (hover to see current wind gust speed)